sensor_id;sensor_type;location;lat;lon;timestamp;pressure;altitude;pressure_sealevel;temperature;humidity
50977;BME280;36992;48.200;12.418;2023-03-25T00:01:38;96202.94;;;13.78;50.75
50977;BME280;36992;48.200;12.418;2023-03-25T00:04:05;96200.53;;;13.76;50.06
50977;BME280;36992;48.200;12.418;2023-03-25T00:06:31;96208.19;;;13.74;50.52
50977;BME280;36992;48.200;12.418;2023-03-25T00:08:59;96194.97;;;13.73;50.31
50977;BME280;36992;48.200;12.418;2023-03-25T00:11:27;96197.22;;;13.71;50.38
50977;BME280;36992;48.200;12.418;2023-03-25T00:13:55;96202.66;;;13.71;50.93
50977;BME280;36992;48.200;12.418;2023-03-25T00:16:22;96202.50;;;13.67;50.18
50977;BME280;36992;48.200;12.418;2023-03-25T00:18:48;96203.94;;;13.65;50.16
50977;BME280;36992;48.200;12.418;2023-03-25T00:21:15;96196.13;;;13.63;50.70
50977;BME280;36992;48.200;12.418;2023-03-25T00:23:43;96189.16;;;13.62;50.67
50977;BME280;36992;48.200;12.418;2023-03-25T00:26:10;96187.88;;;13.59;49.48
50977;BME280;36992;48.200;12.418;2023-03-25T00:28:37;96195.50;;;13.57;49.57
50977;BME280;36992;48.200;12.418;2023-03-25T00:31:07;96200.16;;;13.57;50.46
50977;BME280;36992;48.200;12.418;2023-03-25T00:33:34;96199.50;;;13.51;49.71
50977;BME280;36992;48.200;12.418;2023-03-25T00:36:00;96199.38;;;13.47;49.54
50977;BME280;36992;48.200;12.418;2023-03-25T00:38:31;96203.19;;;13.46;49.89
50977;BME280;36992;48.200;12.418;2023-03-25T00:41:13;96193.19;;;13.47;49.69
50977;BME280;36992;48.200;12.418;2023-03-25T00:43:42;96206.38;;;13.40;49.45
50977;BME280;36992;48.200;12.418;2023-03-25T00:46:10;96203.69;;;13.40;50.17
50977;BME280;36992;48.200;12.418;2023-03-25T00:48:36;96211.31;;;13.38;49.47
50977;BME280;36992;48.200;12.418;2023-03-25T00:51:04;96193.50;;;13.36;49.67
50977;BME280;36992;48.200;12.418;2023-03-25T00:53:35;96189.19;;;13.35;49.89
50977;BME280;36992;48.200;12.418;2023-03-25T00:56:02;96188.75;;;13.33;49.71
50977;BME280;36992;48.200;12.418;2023-03-25T00:58:29;96187.13;;;13.32;49.83
50977;BME280;36992;48.200;12.418;2023-03-25T01:00:56;96186.34;;;13.32;50.27
50977;BME280;36992;48.200;12.418;2023-03-25T01:03:26;96182.22;;;13.34;50.72
50977;BME280;36992;48.200;12.418;2023-03-25T01:05:54;96185.53;;;13.31;51.00
50977;BME280;36992;48.200;12.418;2023-03-25T01:08:22;96181.72;;;13.32;50.88
50977;BME280;36992;48.200;12.418;2023-03-25T01:10:51;96184.91;;;13.34;50.71
50977;BME280;36992;48.200;12.418;2023-03-25T01:13:18;96185.69;;;13.35;50.99
50977;BME280;36992;48.200;12.418;2023-03-25T01:15:44;96181.09;;;13.35;50.96
50977;BME280;36992;48.200;12.418;2023-03-25T01:18:11;96177.25;;;13.36;50.55
50977;BME280;36992;48.200;12.418;2023-03-25T01:20:39;96172.31;;;13.39;50.78
50977;BME280;36992;48.200;12.418;2023-03-25T01:23:05;96173.44;;;13.38;50.14
50977;BME280;36992;48.200;12.418;2023-03-25T01:25:33;96178.38;;;13.35;50.15
50977;BME280;36992;48.200;12.418;2023-03-25T01:28:00;96163.28;;;13.34;50.24
50977;BME280;36992;48.200;12.418;2023-03-25T01:30:27;96171.69;;;13.33;50.23
50977;BME280;36992;48.200;12.418;2023-03-25T01:32:54;96180.13;;;13.31;50.27
50977;BME280;36992;48.200;12.418;2023-03-25T01:38:02;96173.13;;;13.30;50.07
50977;BME280;36992;48.200;12.418;2023-03-25T01:40:29;96156.75;;;13.27;48.69
50977;BME280;36992;48.200;12.418;2023-03-25T01:42:55;96158.19;;;13.24;49.61
50977;BME280;36992;48.200;12.418;2023-03-25T01:45:27;96156.31;;;13.25;49.81
50977;BME280;36992;48.200;12.418;2023-03-25T01:47:59;96145.81;;;13.23;49.85
50977;BME280;36992;48.200;12.418;2023-03-25T01:50:28;96143.25;;;13.18;49.69
50977;BME280;36992;48.200;12.418;2023-03-25T01:52:57;96144.38;;;13.17;49.76
50977;BME280;36992;48.200;12.418;2023-03-25T01:55:26;96147.09;;;13.17;49.60
50977;BME280;36992;48.200;12.418;2023-03-25T01:57:55;96144.38;;;13.17;50.00
50977;BME280;36992;48.200;12.418;2023-03-25T02:00:24;96146.63;;;13.15;49.53
50977;BME280;36992;48.200;12.418;2023-03-25T02:02:53;96145.34;;;13.12;50.24
50977;BME280;36992;48.200;12.418;2023-03-25T02:05:27;96144.56;;;13.12;48.52
50977;BME280;36992;48.200;12.418;2023-03-25T02:07:55;96142.38;;;13.05;48.07
50977;BME280;36992;48.200;12.418;2023-03-25T02:10:22;96146.50;;;13.02;49.61
50977;BME280;36992;48.200;12.418;2023-03-25T02:12:50;96143.31;;;13.00;49.65
50977;BME280;36992;48.200;12.418;2023-03-25T02:15:17;96145.09;;;12.96;49.00
50977;BME280;36992;48.200;12.418;2023-03-25T02:18:02;96142.53;;;13.00;49.37
50977;BME280;36992;48.200;12.418;2023-03-25T02:20:48;96127.75;;;12.97;49.59
50977;BME280;36992;48.200;12.418;2023-03-25T02:23:54;96131.22;;;12.98;49.28
50977;BME280;36992;48.200;12.418;2023-03-25T02:27:01;96120.75;;;12.96;49.29
50977;BME280;36992;48.200;12.418;2023-03-25T02:29:54;96123.63;;;12.91;48.93
50977;BME280;36992;48.200;12.418;2023-03-25T02:32:36;96123.63;;;12.91;49.34
50977;BME280;36992;48.200;12.418;2023-03-25T02:35:29;96112.81;;;12.91;48.45
50977;BME280;36992;48.200;12.418;2023-03-25T02:38:18;96120.28;;;12.85;48.33
50977;BME280;36992;48.200;12.418;2023-03-25T02:40:54;96120.47;;;12.80;48.57
50977;BME280;36992;48.200;12.418;2023-03-25T02:43:26;96120.94;;;12.73;47.82
50977;BME280;36992;48.200;12.418;2023-03-25T02:45:58;96123.34;;;12.66;49.16
50977;BME280;36992;48.200;12.418;2023-03-25T02:48:29;96128.75;;;12.66;48.41
50977;BME280;36992;48.200;12.418;2023-03-25T02:51:00;96115.72;;;12.59;48.25
50977;BME280;36992;48.200;12.418;2023-03-25T02:53:32;96116.06;;;12.58;48.72
50977;BME280;36992;48.200;12.418;2023-03-25T02:56:03;96115.09;;;12.53;49.26
50977;BME280;36992;48.200;12.418;2023-03-25T02:58:33;96118.41;;;12.50;48.83
50977;BME280;36992;48.200;12.418;2023-03-25T03:01:00;96114.44;;;12.48;49.02
50977;BME280;36992;48.200;12.418;2023-03-25T03:03:27;96109.38;;;12.46;48.46
50977;BME280;36992;48.200;12.418;2023-03-25T03:05:56;96116.38;;;12.47;48.47
50977;BME280;36992;48.200;12.418;2023-03-25T03:08:33;96117.16;;;12.48;49.11
50977;BME280;36992;48.200;12.418;2023-03-25T03:11:08;96122.88;;;12.46;48.46
50977;BME280;36992;48.200;12.418;2023-03-25T03:13:50;96121.78;;;12.47;49.57
50977;BME280;36992;48.200;12.418;2023-03-25T03:16:21;96122.41;;;12.44;48.77
50977;BME280;36992;48.200;12.418;2023-03-25T03:18:56;96122.41;;;12.44;49.12
50977;BME280;36992;48.200;12.418;2023-03-25T03:21:32;96122.41;;;12.44;49.30
50977;BME280;36992;48.200;12.418;2023-03-25T03:24:09;96124.00;;;12.45;48.75
50977;BME280;36992;48.200;12.418;2023-03-25T03:26:40;96120.03;;;12.43;48.32
50977;BME280;36992;48.200;12.418;2023-03-25T03:29:12;96135.28;;;12.38;47.81
50977;BME280;36992;48.200;12.418;2023-03-25T03:31:43;96141.66;;;12.34;48.07
50977;BME280;36992;48.200;12.418;2023-03-25T03:34:17;96133.38;;;12.30;47.37
50977;BME280;36992;48.200;12.418;2023-03-25T03:36:48;96131.78;;;12.29;47.46
50977;BME280;36992;48.200;12.418;2023-03-25T03:39:19;96136.41;;;12.28;47.32
50977;BME280;36992;48.200;12.418;2023-03-25T03:41:51;96131.78;;;12.29;47.61
50977;BME280;36992;48.200;12.418;2023-03-25T03:44:21;96151.78;;;12.28;47.40
50977;BME280;36992;48.200;12.418;2023-03-25T03:46:51;96139.41;;;12.27;47.29
50977;BME280;36992;48.200;12.418;2023-03-25T03:49:23;96145.59;;;12.27;47.53
50977;BME280;36992;48.200;12.418;2023-03-25T03:51:55;96143.38;;;12.30;47.63
50977;BME280;36992;48.200;12.418;2023-03-25T03:54:28;96137.16;;;12.29;47.63
50977;BME280;36992;48.200;12.418;2023-03-25T03:56:58;96127.19;;;12.30;47.72
50977;BME280;36992;48.200;12.418;2023-03-25T03:59:32;96134.16;;;12.31;47.84
50977;BME280;36992;48.200;12.418;2023-03-25T04:02:06;96135.28;;;12.30;47.43
50977;BME280;36992;48.200;12.418;2023-03-25T04:04:33;96131.00;;;12.28;47.97
50977;BME280;36992;48.200;12.418;2023-03-25T04:07:07;96144.97;;;12.31;47.55
50977;BME280;36992;48.200;12.418;2023-03-25T04:09:41;96143.53;;;12.42;47.57
50977;BME280;36992;48.200;12.418;2023-03-25T04:12:14;96146.53;;;12.32;47.43
50977;BME280;36992;48.200;12.418;2023-03-25T04:14:42;96155.59;;;12.27;46.99
50977;BME280;36992;48.200;12.418;2023-03-25T04:17:09;96158.63;;;12.25;47.49
50977;BME280;36992;48.200;12.418;2023-03-25T04:19:35;96160.03;;;12.23;46.61
50977;BME280;36992;48.200;12.418;2023-03-25T04:22:04;96156.25;;;12.24;46.76
50977;BME280;36992;48.200;12.418;2023-03-25T04:24:31;96165.44;;;12.23;47.17
50977;BME280;36992;48.200;12.418;2023-03-25T04:27:03;96163.53;;;12.23;46.76
50977;BME280;36992;48.200;12.418;2023-03-25T04:29:29;96156.09;;;12.20;46.38
50977;BME280;36992;48.200;12.418;2023-03-25T04:31:56;96156.88;;;12.21;46.50
50977;BME280;36992;48.200;12.418;2023-03-25T04:34:23;96163.69;;;12.18;45.98
50977;BME280;36992;48.200;12.418;2023-03-25T04:36:51;96153.53;;;12.15;45.71
50977;BME280;36992;48.200;12.418;2023-03-25T04:39:18;96149.72;;;12.16;46.20
50977;BME280;36992;48.200;12.418;2023-03-25T04:41:46;96156.72;;;12.17;45.86
50977;BME280;36992;48.200;12.418;2023-03-25T04:44:15;96164.50;;;12.19;46.54
50977;BME280;36992;48.200;12.418;2023-03-25T04:46:42;96164.34;;;12.15;45.62
50977;BME280;36992;48.200;12.418;2023-03-25T04:49:16;96165.13;;;12.16;46.93
50977;BME280;36992;48.200;12.418;2023-03-25T04:51:43;96172.59;;;12.10;45.68
50977;BME280;36992;48.200;12.418;2023-03-25T04:54:10;96167.50;;;12.08;46.02
50977;BME280;36992;48.200;12.418;2023-03-25T04:56:36;96169.41;;;12.08;45.61
50977;BME280;36992;48.200;12.418;2023-03-25T04:59:04;96168.44;;;12.04;45.46
50977;BME280;36992;48.200;12.418;2023-03-25T05:01:33;96182.91;;;12.08;46.05
50977;BME280;36992;48.200;12.418;2023-03-25T05:04:04;96183.22;;;12.06;46.08
50977;BME280;36992;48.200;12.418;2023-03-25T05:06:31;96177.63;;;12.03;46.03
50977;BME280;36992;48.200;12.418;2023-03-25T05:08:58;96183.03;;;12.03;46.62
50977;BME280;36992;48.200;12.418;2023-03-25T05:11:26;96185.22;;;12.00;45.42
50977;BME280;36992;48.200;12.418;2023-03-25T05:13:53;96181.44;;;12.01;46.00
50977;BME280;36992;48.200;12.418;2023-03-25T05:16:19;96180.47;;;11.97;45.44
50977;BME280;36992;48.200;12.418;2023-03-25T05:18:47;96184.44;;;12.00;46.21
50977;BME280;36992;48.200;12.418;2023-03-25T05:21:14;96181.88;;;11.95;45.40
50977;BME280;36992;48.200;12.418;2023-03-25T05:23:41;96175.69;;;11.94;45.55
50977;BME280;36992;48.200;12.418;2023-03-25T05:26:08;96179.50;;;11.93;45.15
50977;BME280;36992;48.200;12.418;2023-03-25T05:28:36;96184.13;;;11.93;45.11
50977;BME280;36992;48.200;12.418;2023-03-25T05:31:04;96178.72;;;11.93;45.76
50977;BME280;36992;48.200;12.418;2023-03-25T05:33:33;96170.94;;;11.91;45.79
50977;BME280;36992;48.200;12.418;2023-03-25T05:36:03;96172.81;;;11.91;45.04
50977;BME280;36992;48.200;12.418;2023-03-25T05:38:30;96168.22;;;11.91;46.17
50977;BME280;36992;48.200;12.418;2023-03-25T05:40:57;96170.94;;;11.91;46.04
50977;BME280;36992;48.200;12.418;2023-03-25T05:43:25;96177.91;;;11.92;45.18
50977;BME280;36992;48.200;12.418;2023-03-25T05:45:51;96177.91;;;11.92;44.90
50977;BME280;36992;48.200;12.418;2023-03-25T05:48:18;96183.31;;;11.92;45.47
50977;BME280;36992;48.200;12.418;2023-03-25T05:50:44;96179.50;;;11.93;46.10
50977;BME280;36992;48.200;12.418;2023-03-25T05:53:13;96178.88;;;11.96;45.35
50977;BME280;36992;48.200;12.418;2023-03-25T05:55:40;96184.28;;;11.96;46.51
50977;BME280;36992;48.200;12.418;2023-03-25T05:58:07;96195.84;;;11.97;45.57
50977;BME280;36992;48.200;12.418;2023-03-25T06:00:33;96188.25;;;11.99;45.33
50977;BME280;36992;48.200;12.418;2023-03-25T06:03:00;96195.56;;;11.98;46.35
50977;BME280;36992;48.200;12.418;2023-03-25T06:05:27;96195.25;;;12.00;45.92
50977;BME280;36992;48.200;12.418;2023-03-25T06:07:54;96197.63;;;12.01;46.33
50977;BME280;36992;48.200;12.418;2023-03-25T06:10:23;96200.53;;;12.05;45.69
50977;BME280;36992;48.200;12.418;2023-03-25T06:12:50;96194.59;;;12.03;45.93
50977;BME280;36992;48.200;12.418;2023-03-25T06:15:18;96202.44;;;12.05;45.99
50977;BME280;36992;48.200;12.418;2023-03-25T06:17:57;96200.19;;;12.07;46.61
50977;BME280;36992;48.200;12.418;2023-03-25T06:20:25;96194.03;;;12.06;45.60
50977;BME280;36992;48.200;12.418;2023-03-25T06:22:51;96202.91;;;12.07;46.52
50977;BME280;36992;48.200;12.418;2023-03-25T06:25:19;96208.00;;;12.08;45.89
50977;BME280;36992;48.200;12.418;2023-03-25T06:27:48;96203.56;;;12.12;46.04
50977;BME280;36992;48.200;12.418;2023-03-25T06:30:17;96221.19;;;12.10;44.90
50977;BME280;36992;48.200;12.418;2023-03-25T06:32:44;96218.19;;;12.11;45.25
50977;BME280;36992;48.200;12.418;2023-03-25T06:35:15;96221.19;;;12.10;44.15
50977;BME280;36992;48.200;12.418;2023-03-25T06:37:44;96217.69;;;12.09;44.83
50977;BME280;36992;48.200;12.418;2023-03-25T06:40:11;96220.38;;;12.09;44.76
50977;BME280;36992;48.200;12.418;2023-03-25T06:42:38;96233.56;;;12.11;44.77
50977;BME280;36992;48.200;12.418;2023-03-25T06:45:08;96231.84;;;12.15;45.26
50977;BME280;36992;48.200;12.418;2023-03-25T06:47:35;96236.13;;;12.16;44.96
50977;BME280;36992;48.200;12.418;2023-03-25T06:50:01;96241.22;;;12.18;44.93
50977;BME280;36992;48.200;12.418;2023-03-25T06:52:28;96234.06;;;12.22;45.32
50977;BME280;36992;48.200;12.418;2023-03-25T06:54:55;96228.34;;;12.23;44.82
50977;BME280;36992;48.200;12.418;2023-03-25T06:57:21;96234.38;;;12.29;45.75
50977;BME280;36992;48.200;12.418;2023-03-25T06:59:48;96247.75;;;12.34;45.00
50977;BME280;36992;48.200;12.418;2023-03-25T07:02:16;96243.63;;;12.37;44.54
50977;BME280;36992;48.200;12.418;2023-03-25T07:04:42;96250.78;;;12.41;43.98
50977;BME280;36992;48.200;12.418;2023-03-25T07:07:09;96242.88;;;12.45;44.63
50977;BME280;36992;48.200;12.418;2023-03-25T07:09:35;96248.28;;;12.45;43.17
50977;BME280;36992;48.200;12.418;2023-03-25T07:12:02;96252.41;;;12.51;44.25
50977;BME280;36992;48.200;12.418;2023-03-25T07:14:29;96256.84;;;12.56;43.82
50977;BME280;36992;48.200;12.418;2023-03-25T07:16:56;96257.50;;;12.62;44.11
50977;BME280;36992;48.200;12.418;2023-03-25T07:19:24;96265.44;;;12.67;43.42
50977;BME280;36992;48.200;12.418;2023-03-25T07:21:51;96260.50;;;12.69;42.90
50977;BME280;36992;48.200;12.418;2023-03-25T07:24:17;96255.25;;;12.73;41.59
50977;BME280;36992;48.200;12.418;2023-03-25T07:26:44;96272.44;;;12.77;42.21
50977;BME280;36992;48.200;12.418;2023-03-25T07:29:10;96261.31;;;12.78;41.00
50977;BME280;36992;48.200;12.418;2023-03-25T07:31:37;96250.66;;;12.73;40.17
50977;BME280;36992;48.200;12.418;2023-03-25T07:34:05;96252.25;;;12.74;39.71
50977;BME280;36992;48.200;12.418;2023-03-25T07:36:34;96248.94;;;12.77;41.00
50977;BME280;36992;48.200;12.418;2023-03-25T07:39:01;96254.94;;;12.74;41.00
50977;BME280;36992;48.200;12.418;2023-03-25T07:41:28;96257.34;;;12.76;39.55
50977;BME280;36992;48.200;12.418;2023-03-25T07:43:54;96274.19;;;12.73;40.15
50977;BME280;36992;48.200;12.418;2023-03-25T07:46:21;96269.59;;;12.73;40.05
50977;BME280;36992;48.200;12.418;2023-03-25T07:48:48;96277.22;;;12.71;40.74
50977;BME280;36992;48.200;12.418;2023-03-25T07:51:15;96283.25;;;12.68;40.27
50977;BME280;36992;48.200;12.418;2023-03-25T07:53:43;96295.81;;;12.73;40.65
50977;BME280;36992;48.200;12.418;2023-03-25T07:56:11;96297.56;;;12.68;40.37
50977;BME280;36992;48.200;12.418;2023-03-25T07:58:38;96299.13;;;12.61;39.61
50977;BME280;36992;48.200;12.418;2023-03-25T08:01:06;96296.44;;;12.61;40.23
50977;BME280;36992;48.200;12.418;2023-03-25T08:03:33;96298.16;;;12.57;40.01
50977;BME280;36992;48.200;12.418;2023-03-25T08:06:03;96291.81;;;12.52;40.37
50977;BME280;36992;48.200;12.418;2023-03-25T08:08:31;96304.22;;;12.53;40.65
50977;BME280;36992;48.200;12.418;2023-03-25T08:10:59;96297.53;;;12.51;40.61
50977;BME280;36992;48.200;12.418;2023-03-25T08:13:26;96307.88;;;12.49;40.83
50977;BME280;36992;48.200;12.418;2023-03-25T08:15:53;96293.56;;;12.48;40.56
50977;BME280;36992;48.200;12.418;2023-03-25T08:18:19;96291.66;;;12.49;41.23
50977;BME280;36992;48.200;12.418;2023-03-25T08:20:47;96296.25;;;12.48;41.79
50977;BME280;36992;48.200;12.418;2023-03-25T08:23:15;96304.03;;;12.50;41.96
50977;BME280;36992;48.200;12.418;2023-03-25T08:25:45;96310.72;;;12.52;41.93
50977;BME280;36992;48.200;12.418;2023-03-25T08:28:15;96297.38;;;12.56;41.80
50977;BME280;36992;48.200;12.418;2023-03-25T08:30:47;96294.03;;;12.59;41.39
50977;BME280;36992;48.200;12.418;2023-03-25T08:33:14;96318.53;;;12.63;40.59
50977;BME280;36992;48.200;12.418;2023-03-25T08:35:43;96310.41;;;12.63;40.54
50977;BME280;36992;48.200;12.418;2023-03-25T08:38:10;96315.50;;;12.64;41.04
50977;BME280;36992;48.200;12.418;2023-03-25T08:40:37;96309.00;;;12.65;40.86
50977;BME280;36992;48.200;12.418;2023-03-25T08:43:04;96307.88;;;12.66;40.36
50977;BME280;36992;48.200;12.418;2023-03-25T08:45:32;96311.25;;;12.72;41.07
50977;BME280;36992;48.200;12.418;2023-03-25T08:48:00;96314.91;;;12.76;41.19
50977;BME280;36992;48.200;12.418;2023-03-25T08:50:27;96303.16;;;12.81;41.70
50977;BME280;36992;48.200;12.418;2023-03-25T08:52:55;96310.28;;;12.86;39.82
50977;BME280;36992;48.200;12.418;2023-03-25T08:55:25;96308.72;;;12.85;40.70
50977;BME280;36992;48.200;12.418;2023-03-25T08:57:51;96296.31;;;12.84;40.36
50977;BME280;36992;48.200;12.418;2023-03-25T09:00:18;96299.00;;;12.84;40.46
50977;BME280;36992;48.200;12.418;2023-03-25T09:02:50;96300.75;;;12.88;40.34
50977;BME280;36992;48.200;12.418;2023-03-25T09:05:16;96293.47;;;12.89;40.56
50977;BME280;36992;48.200;12.418;2023-03-25T09:07:44;96290.56;;;12.94;40.92
50977;BME280;36992;48.200;12.418;2023-03-25T09:10:11;96283.75;;;12.97;41.38
50977;BME280;36992;48.200;12.418;2023-03-25T09:12:38;96291.53;;;12.98;39.99
50977;BME280;36992;48.200;12.418;2023-03-25T09:15:06;96294.09;;;13.03;40.30
50977;BME280;36992;48.200;12.418;2023-03-25T09:17:33;96280.41;;;13.08;40.84
50977;BME280;36992;48.200;12.418;2023-03-25T09:20:02;96292.66;;;13.15;40.30
50977;BME280;36992;48.200;12.418;2023-03-25T09:22:30;96311.25;;;13.16;39.79
50977;BME280;36992;48.200;12.418;2023-03-25T09:24:57;96294.41;;;13.19;40.18
50977;BME280;36992;48.200;12.418;2023-03-25T09:27:23;96294.56;;;13.23;39.53
50977;BME280;36992;48.200;12.418;2023-03-25T09:29:51;96304.75;;;13.26;39.78
50977;BME280;36992;48.200;12.418;2023-03-25T09:32:17;96302.97;;;13.30;40.45
50977;BME280;36992;48.200;12.418;2023-03-25T09:34:45;96292.00;;;13.35;39.18
50977;BME280;36992;48.200;12.418;2023-03-25T09:37:14;96290.25;;;13.40;39.51
50977;BME280;36992;48.200;12.418;2023-03-25T09:39:40;96288.63;;;13.39;39.42
50977;BME280;36992;48.200;12.418;2023-03-25T09:45:05;96286.28;;;13.46;39.61
50977;BME280;36992;48.200;12.418;2023-03-25T09:47:48;96289.47;;;13.48;39.75
50977;BME280;36992;48.200;12.418;2023-03-25T09:50:18;96284.84;;;13.40;39.45
50977;BME280;36992;48.200;12.418;2023-03-25T09:52:51;96290.41;;;13.43;39.60
50977;BME280;36992;48.200;12.418;2023-03-25T09:55:22;96292.28;;;13.43;39.93
50977;BME280;36992;48.200;12.418;2023-03-25T09:57:55;96284.19;;;13.43;40.45
50977;BME280;36992;48.200;12.418;2023-03-25T10:00:24;96277.66;;;13.44;40.34
50977;BME280;36992;48.200;12.418;2023-03-25T10:02:57;96268.63;;;13.48;40.36
50977;BME280;36992;48.200;12.418;2023-03-25T10:05:49;96279.25;;;13.54;41.03
50977;BME280;36992;48.200;12.418;2023-03-25T10:08:26;96263.81;;;13.54;41.07
50977;BME280;36992;48.200;12.418;2023-03-25T10:11:04;96264.28;;;13.56;41.33
50977;BME280;36992;48.200;12.418;2023-03-25T10:13:39;96253.00;;;13.54;41.58
50977;BME280;36992;48.200;12.418;2023-03-25T10:16:19;96260.94;;;13.59;41.79
50977;BME280;36992;48.200;12.418;2023-03-25T10:19:02;96250.25;;;13.63;42.00
50977;BME280;36992;48.200;12.418;2023-03-25T10:21:42;96253.44;;;13.65;42.14
50977;BME280;36992;48.200;12.418;2023-03-25T10:24:17;96242.91;;;13.72;41.66
50977;BME280;36992;48.200;12.418;2023-03-25T10:26:47;96239.09;;;13.73;41.91
50977;BME280;36992;48.200;12.418;2023-03-25T10:29:20;96230.00;;;13.78;41.87
50977;BME280;36992;48.200;12.418;2023-03-25T10:31:50;96230.28;;;13.85;41.56
50977;BME280;36992;48.200;12.418;2023-03-25T10:34:19;96232.31;;;13.88;41.30
50977;BME280;36992;48.200;12.418;2023-03-25T10:36:51;96220.69;;;13.97;41.66
50977;BME280;36992;48.200;12.418;2023-03-25T10:39:22;96230.22;;;14.03;41.50
50977;BME280;36992;48.200;12.418;2023-03-25T10:41:52;96214.69;;;14.12;40.76
50977;BME280;36992;48.200;12.418;2023-03-25T10:44:21;96219.91;;;14.18;39.58
50977;BME280;36992;48.200;12.418;2023-03-25T10:46:54;96218.63;;;14.24;39.35
50977;BME280;36992;48.200;12.418;2023-03-25T10:49:26;96220.69;;;14.27;39.63
50977;BME280;36992;48.200;12.418;2023-03-25T10:51:54;96216.53;;;14.29;39.62
50977;BME280;36992;48.200;12.418;2023-03-25T10:54:26;96211.25;;;14.33;38.92
50977;BME280;36992;48.200;12.418;2023-03-25T10:56:57;96204.38;;;14.36;38.51
50977;BME280;36992;48.200;12.418;2023-03-25T10:59:29;96206.72;;;14.37;38.11
50977;BME280;36992;48.200;12.418;2023-03-25T11:01:59;96200.53;;;14.37;38.28
50977;BME280;36992;48.200;12.418;2023-03-25T11:04:31;96205.41;;;14.43;38.24
50977;BME280;36992;48.200;12.418;2023-03-25T11:07:00;96211.19;;;14.42;37.91
50977;BME280;36992;48.200;12.418;2023-03-25T11:09:31;96206.09;;;14.40;36.71
50977;BME280;36992;48.200;12.418;2023-03-25T11:12:03;96220.41;;;14.41;36.38
50977;BME280;36992;48.200;12.418;2023-03-25T11:14:35;96210.19;;;14.47;37.11
50977;BME280;36992;48.200;12.418;2023-03-25T11:17:09;96193.00;;;14.42;37.30
50977;BME280;36992;48.200;12.418;2023-03-25T11:19:40;96187.13;;;14.40;36.96
50977;BME280;36992;48.200;12.418;2023-03-25T11:22:10;96173.56;;;14.40;36.88
50977;BME280;36992;48.200;12.418;2023-03-25T11:24:43;96167.81;;;14.42;37.43
50977;BME280;36992;48.200;12.418;2023-03-25T11:27:16;96161.72;;;14.45;37.42
50977;BME280;36992;48.200;12.418;2023-03-25T11:29:49;96160.72;;;14.50;37.72
50977;BME280;36992;48.200;12.418;2023-03-25T11:32:22;96154.34;;;14.54;37.63
50977;BME280;36992;48.200;12.418;2023-03-25T11:34:49;96139.31;;;14.57;36.91
50977;BME280;36992;48.200;12.418;2023-03-25T11:37:19;96161.91;;;14.61;36.38
50977;BME280;36992;48.200;12.418;2023-03-25T11:39:53;96150.88;;;14.66;37.00
50977;BME280;36992;48.200;12.418;2023-03-25T11:42:28;96157.88;;;14.67;36.39
50977;BME280;36992;48.200;12.418;2023-03-25T11:44:58;96153.25;;;14.68;36.45
50977;BME280;36992;48.200;12.418;2023-03-25T11:47:29;96143.84;;;14.74;37.35
50977;BME280;36992;48.200;12.418;2023-03-25T11:49:57;96144.91;;;14.73;37.37
50977;BME280;36992;48.200;12.418;2023-03-25T11:52:25;96133.88;;;14.78;38.40
50977;BME280;36992;48.200;12.418;2023-03-25T11:54:55;96140.69;;;14.84;38.33
50977;BME280;36992;48.200;12.418;2023-03-25T11:57:25;96121.81;;;14.88;37.05
50977;BME280;36992;48.200;12.418;2023-03-25T12:00:00;96122.88;;;14.96;36.93
50977;BME280;36992;48.200;12.418;2023-03-25T12:02:35;96104.34;;;14.98;36.80
50977;BME280;36992;48.200;12.418;2023-03-25T12:05:10;96116.91;;;15.03;37.33
50977;BME280;36992;48.200;12.418;2023-03-25T12:07:40;96101.53;;;15.07;37.09
50977;BME280;36992;48.200;12.418;2023-03-25T12:10:15;96101.53;;;15.07;36.00
50977;BME280;36992;48.200;12.418;2023-03-25T12:12:47;96106.31;;;15.10;35.54
50977;BME280;36992;48.200;12.418;2023-03-25T12:15:23;96107.22;;;15.14;36.72
50977;BME280;36992;48.200;12.418;2023-03-25T12:18:04;96095.25;;;15.15;37.05
50977;BME280;36992;48.200;12.418;2023-03-25T12:20:40;96115.56;;;15.09;36.47
50977;BME280;36992;48.200;12.418;2023-03-25T12:23:18;96093.88;;;15.09;36.75
50977;BME280;36992;48.200;12.418;2023-03-25T12:25:53;96096.09;;;15.07;37.00
50977;BME280;36992;48.200;12.418;2023-03-25T12:28:33;96078.94;;;15.03;36.16
50977;BME280;36992;48.200;12.418;2023-03-25T12:31:09;96087.41;;;15.01;36.01
50977;BME280;36992;48.200;12.418;2023-03-25T12:33:50;96081.66;;;15.03;36.58
50977;BME280;36992;48.200;12.418;2023-03-25T12:36:28;96061.22;;;15.05;36.31
50977;BME280;36992;48.200;12.418;2023-03-25T12:39:11;96078.25;;;15.06;36.01
50977;BME280;36992;48.200;12.418;2023-03-25T12:41:48;96083.47;;;15.11;36.51
50977;BME280;36992;48.200;12.418;2023-03-25T12:44:41;96070.81;;;15.15;36.42
50977;BME280;36992;48.200;12.418;2023-03-25T12:47:14;96071.59;;;15.16;36.40
50977;BME280;36992;48.200;12.418;2023-03-25T12:49:55;96065.19;;;15.20;36.46
50977;BME280;36992;48.200;12.418;2023-03-25T12:52:30;96082.00;;;15.26;36.62
50977;BME280;36992;48.200;12.418;2023-03-25T12:55:14;96073.53;;;15.28;35.58
50977;BME280;36992;48.200;12.418;2023-03-25T12:58:02;96087.66;;;15.33;36.16
50977;BME280;36992;48.200;12.418;2023-03-25T13:00:43;96083.03;;;15.34;35.38
50977;BME280;36992;48.200;12.418;2023-03-25T13:06:16;96101.34;;;15.37;35.18
50977;BME280;36992;48.200;12.418;2023-03-25T13:08:50;96089.47;;;15.42;34.32
50977;BME280;36992;48.200;12.418;2023-03-25T13:11:22;96082.69;;;15.35;34.16
50977;BME280;36992;48.200;12.418;2023-03-25T13:13:56;96085.75;;;15.34;34.52
50977;BME280;36992;48.200;12.418;2023-03-25T13:16:26;96085.97;;;15.29;33.90